createdAt,value
2018-09-04T00:02:02.441Z,97414.20
2018-09-04T00:04:31.530Z,97407.98
2018-09-04T00:07:02.349Z,97407.66
2018-09-04T00:09:46.154Z,97404.95
2018-09-04T00:12:15.246Z,97400.88
2018-09-04T00:14:46.367Z,97398.47
2018-09-04T00:17:15.590Z,97397.38
2018-09-04T00:19:44.806Z,97399.11
2018-09-04T00:22:14.021Z,97403.19
2018-09-04T00:24:42.974Z,97397.63
2018-09-04T00:27:11.962Z,97399.63
2018-09-04T00:29:40.898Z,97397.36
2018-09-04T00:32:11.382Z,97399.19
2018-09-04T00:34:42.632Z,97393.29
2018-09-04T00:37:11.791Z,97385.94
2018-09-04T00:39:40.682Z,97387.32
2018-09-04T00:42:10.550Z,97385.48
2018-09-04T00:44:39.642Z,97387.25
2018-09-04T00:47:08.577Z,97394.23
2018-09-04T00:49:38.693Z,97395.94
2018-09-04T00:52:08.507Z,97392.69
2018-09-04T00:54:38.381Z,97398.52
2018-09-04T00:57:07.342Z,97391.33
2018-09-04T00:59:36.358Z,97392.30
2018-09-04T01:02:05.608Z,97389.77
2018-09-04T01:04:34.576Z,97393.39
2018-09-04T01:07:03.539Z,97393.72
2018-09-04T01:09:32.528Z,97384.49
2018-09-04T01:12:01.562Z,97386.14
2018-09-04T01:14:30.544Z,97382.35
2018-09-04T01:16:59.468Z,97386.92
2018-09-04T01:19:28.402Z,97383.63
2018-09-04T01:21:57.384Z,97386.87
2018-09-04T01:24:26.713Z,97381.16
2018-09-04T01:26:55.829Z,97372.97
2018-09-04T01:29:24.888Z,97370.89
2018-09-04T01:31:54.202Z,97363.70
2018-09-04T01:34:23.454Z,97362.77
2018-09-04T01:36:52.497Z,97356.50
2018-09-04T01:39:21.406Z,97350.16
2018-09-04T01:41:51.469Z,97355.62
2018-09-04T01:44:20.676Z,97360.25
2018-09-04T01:46:49.640Z,97357.87
2018-09-04T01:49:18.643Z,97359.31
2018-09-04T01:51:47.985Z,97361.56
2018-09-04T01:54:16.933Z,97365.86
2018-09-04T01:56:45.823Z,97363.72
2018-09-04T01:59:15.484Z,97368.65
2018-09-04T02:01:44.717Z,97373.22
2018-09-04T02:04:13.683Z,97373.95
2018-09-04T02:06:42.681Z,97385.44
2018-09-04T02:09:11.902Z,97383.34
2018-09-04T02:11:40.838Z,97383.97
2018-09-04T02:14:09.897Z,97386.74
2018-09-04T02:16:39.582Z,97384.84
2018-09-04T02:19:09.358Z,97387.93
2018-09-04T02:21:38.305Z,97389.69
2018-09-04T02:24:07.233Z,97385.06
2018-09-04T02:26:36.167Z,97383.75
2018-09-04T02:29:05.220Z,97381.78
2018-09-04T02:31:34.107Z,97378.65
2018-09-04T02:34:02.987Z,97385.65
2018-09-04T02:36:32.001Z,97385.16
2018-09-04T02:39:01.043Z,97385.52
2018-09-04T02:41:30.010Z,97387.67
2018-09-04T02:43:59.134Z,97385.20
2018-09-04T02:46:28.105Z,97380.88
2018-09-04T02:48:57.134Z,97383.34
2018-09-04T02:51:26.078Z,97382.84
2018-09-04T02:53:55.061Z,97385.35
2018-09-04T02:56:24.067Z,97383.17
2018-09-04T02:58:53.189Z,97381.85
2018-09-04T03:01:22.083Z,97375.36
2018-09-04T03:03:51.061Z,97377.03
2018-09-04T03:06:20.121Z,97387.67
2018-09-04T03:08:49.121Z,97384.20
2018-09-04T03:11:18.846Z,97383.66
2018-09-04T03:13:47.903Z,97378.42
2018-09-04T03:16:17.009Z,97376.09
2018-09-04T03:18:45.994Z,97381.20
2018-09-04T03:21:14.935Z,97378.56
2018-09-04T03:23:44.672Z,97380.75
2018-09-04T03:26:13.726Z,97381.60
2018-09-04T03:28:42.713Z,97389.75
2018-09-04T03:31:11.669Z,97390.05
2018-09-04T03:33:40.602Z,97391.94
2018-09-04T03:36:09.667Z,97391.18
2018-09-04T03:38:38.705Z,97383.21
2018-09-04T03:41:07.656Z,97393.05
2018-09-04T03:43:36.642Z,97396.05
2018-09-04T03:46:05.857Z,97401.25
2018-09-04T03:48:34.810Z,97396.55
2018-09-04T03:51:03.976Z,97400.22
2018-09-04T03:53:32.874Z,97399.64
2018-09-04T03:56:01.816Z,97398.53
2018-09-04T03:58:30.776Z,97396.67
2018-09-04T04:00:59.719Z,97403.55
2018-09-04T04:03:28.711Z,97401.73
2018-09-04T04:05:57.648Z,97401.00
2018-09-04T04:08:27.902Z,97393.93
2018-09-04T04:10:57.671Z,97395.19
2018-09-04T04:13:26.605Z,97397.12
2018-09-04T04:15:55.586Z,97397.29
2018-09-04T04:18:24.805Z,97398.48
2018-09-04T04:21:02.406Z,97396.63
2018-09-04T04:23:31.689Z,97406.97
2018-09-04T04:26:02.576Z,97409.14
2018-09-04T04:28:31.608Z,97406.43
2018-09-04T04:31:00.549Z,97404.19
2018-09-04T04:33:29.439Z,97410.46
2018-09-04T04:35:58.495Z,97401.43
2018-09-04T04:38:27.496Z,97404.76
2018-09-04T04:40:56.477Z,97414.86
2018-09-04T04:43:25.496Z,97412.55
2018-09-04T04:45:54.536Z,97408.97
2018-09-04T04:48:23.485Z,97413.86
2018-09-04T04:50:52.495Z,97418.27
2018-09-04T04:53:21.767Z,97421.03
2018-09-04T04:55:50.763Z,97419.39
2018-09-04T04:58:19.837Z,97428.64
2018-09-04T05:00:50.436Z,97421.03
2018-09-04T05:03:19.536Z,97421.48
2018-09-04T05:05:48.486Z,97430.95
2018-09-04T05:08:17.990Z,97437.30
2018-09-04T05:10:46.892Z,97428.89
2018-09-04T05:13:16.982Z,97436.29
2018-09-04T05:15:45.851Z,97437.94
2018-09-04T05:18:14.793Z,97442.77
2018-09-04T05:20:43.938Z,97444.75
2018-09-04T05:23:13.117Z,97443.00
2018-09-04T05:25:41.998Z,97441.09
2018-09-04T05:28:11.162Z,97449.66
2018-09-04T05:30:40.994Z,97452.69
2018-09-04T05:33:14.873Z,97453.92
2018-09-04T05:35:49.668Z,97449.42
2018-09-04T05:38:19.054Z,97459.36
2018-09-04T05:40:48.006Z,97457.30
2018-09-04T05:43:26.219Z,97460.89
2018-09-04T05:45:56.225Z,97460.89
2018-09-04T05:48:25.261Z,97457.84
2018-09-04T05:50:54.125Z,97462.09
2018-09-04T05:53:23.262Z,97466.33
2018-09-04T05:55:52.234Z,97463.47
2018-09-04T05:58:21.351Z,97459.49
2018-09-04T06:00:53.634Z,97466.69
2018-09-04T06:03:22.705Z,97463.72
2018-09-04T06:05:51.760Z,97455.14
2018-09-04T06:08:21.110Z,97463.62
2018-09-04T06:10:50.114Z,97459.11
2018-09-04T06:13:19.204Z,97457.09
2018-09-04T06:15:48.208Z,97455.52
2018-09-04T06:18:17.389Z,97452.20
2018-09-04T06:20:46.286Z,97445.36
2018-09-04T06:23:15.177Z,97443.95
2018-09-04T06:25:44.147Z,97444.49
2018-09-04T06:28:13.094Z,97444.23
2018-09-04T06:30:42.132Z,97442.63
2018-09-04T06:33:11.046Z,97438.98
2018-09-04T06:35:40.039Z,97438.61
2018-09-04T06:38:08.977Z,97430.88
2018-09-04T06:40:37.920Z,97431.91
2018-09-04T06:43:06.920Z,97422.27
2018-09-04T06:45:35.847Z,97423.22
2018-09-04T06:48:04.777Z,97420.63
2018-09-04T06:50:33.768Z,97432.03
2018-09-04T06:53:03.210Z,97432.69
2018-09-04T06:55:42.617Z,97431.78
2018-09-04T06:58:22.090Z,97424.30
2018-09-04T07:00:52.240Z,97424.05
2018-09-04T07:06:44.774Z,97426.16
2018-09-04T07:09:14.807Z,97422.68
2018-09-04T07:11:44.950Z,97425.66
2018-09-04T07:14:13.849Z,97426.97
2018-09-04T07:16:43.059Z,97412.77
2018-09-04T07:19:16.642Z,97423.56
2018-09-04T07:21:45.607Z,97425.17
2018-09-04T07:24:14.937Z,97415.59
2018-09-04T07:26:44.630Z,97423.08
2018-09-04T07:29:13.537Z,97426.55
2018-09-04T07:31:42.706Z,97431.47
2018-09-04T07:34:11.679Z,97427.04
2018-09-04T07:36:40.811Z,97431.33
2018-09-04T07:39:11.475Z,97430.52
2018-09-04T07:41:40.777Z,97431.58
2018-09-04T07:44:09.772Z,97438.66
2018-09-04T07:46:38.915Z,97440.06
2018-09-04T07:49:07.863Z,97444.17
2018-09-04T07:51:36.793Z,97439.37
2018-09-04T07:54:05.785Z,97441.67
2018-09-04T07:56:34.790Z,97443.73
2018-09-04T07:59:03.834Z,97446.48
2018-09-04T08:01:32.810Z,97443.17
2018-09-04T08:04:01.727Z,97446.30
2018-09-04T08:06:30.687Z,97447.17
2018-09-04T08:08:59.645Z,97446.09
2018-09-04T08:11:28.723Z,97440.42
2018-09-04T08:13:57.728Z,97447.37
2018-09-04T08:16:26.698Z,97447.62
2018-09-04T08:18:55.618Z,97447.51
2018-09-04T08:21:24.742Z,97448.59
2018-09-04T08:23:53.675Z,97449.00
2018-09-04T08:26:22.591Z,97454.90
2018-09-04T08:28:51.508Z,97447.32
2018-09-04T08:31:20.944Z,97446.14
2018-09-04T08:33:50.007Z,97446.25
2018-09-04T08:36:18.919Z,97456.89
2018-09-04T08:38:50.109Z,97443.03
2018-09-04T08:41:19.424Z,97444.88
2018-09-04T08:43:48.885Z,97435.53
2018-09-04T08:46:18.541Z,97433.30
2018-09-04T08:48:47.517Z,97436.11
2018-09-04T08:51:16.393Z,97439.87
2018-09-04T08:53:45.319Z,97436.18
2018-09-04T08:56:15.105Z,97435.41
2018-09-04T08:58:44.080Z,97434.26
2018-09-04T09:01:12.955Z,97434.63
2018-09-04T09:03:42.013Z,97426.10
2018-09-04T09:06:10.904Z,97434.42
2018-09-04T09:08:39.825Z,97430.80
2018-09-04T09:11:08.802Z,97429.10
2018-09-04T09:13:37.766Z,97420.20
2018-09-04T09:16:07.038Z,97422.19
2018-09-04T09:18:35.970Z,97417.02
2018-09-04T09:21:04.871Z,97425.06
2018-09-04T09:23:33.829Z,97421.41
2018-09-04T09:26:02.783Z,97420.18
2018-09-04T09:28:31.661Z,97420.08
2018-09-04T09:31:00.587Z,97417.03
2018-09-04T09:33:29.441Z,97417.25
2018-09-04T09:35:58.774Z,97404.08
2018-09-04T09:38:30.619Z,97400.21
2018-09-04T09:41:03.016Z,97399.12
2018-09-04T09:43:32.065Z,97396.91
2018-09-04T09:46:00.962Z,97397.62
2018-09-04T09:48:45.123Z,97387.56
2018-09-04T09:51:14.206Z,97393.67
2018-09-04T09:53:43.099Z,97391.16
2018-09-04T09:56:12.403Z,97384.31
2018-09-04T09:58:41.755Z,97384.93
2018-09-04T10:01:15.671Z,97385.45
2018-09-04T10:03:49.146Z,97379.55
2018-09-04T10:06:19.493Z,97384.05
2018-09-04T10:08:48.475Z,97376.40
2018-09-04T10:11:17.769Z,97374.41
2018-09-04T10:13:47.085Z,97375.34
2018-09-04T10:16:16.472Z,97375.59
2018-09-04T10:18:45.430Z,97365.61
2018-09-04T10:21:14.547Z,97367.84
2018-09-04T10:23:43.438Z,97356.27
2018-09-04T10:26:12.379Z,97365.01
2018-09-04T10:28:41.275Z,97372.19
2018-09-04T10:31:10.117Z,97373.21
2018-09-04T10:33:39.036Z,97373.11
2018-09-04T10:36:08.102Z,97371.36
2018-09-04T10:38:36.941Z,97380.13
2018-09-04T10:41:10.552Z,97386.08
2018-09-04T10:43:40.315Z,97383.92
2018-09-04T10:46:10.867Z,97379.53
2018-09-04T10:48:40.115Z,97383.16
2018-09-04T10:51:09.060Z,97381.39
2018-09-04T10:53:38.046Z,97381.61
2018-09-04T10:56:07.209Z,97377.20
2018-09-04T10:58:36.261Z,97376.08
2018-09-04T11:01:05.404Z,97381.43
2018-09-04T11:03:34.495Z,97375.10
2018-09-04T11:06:03.442Z,97378.58
2018-09-04T11:08:32.339Z,97368.09
2018-09-04T11:11:01.739Z,97363.87
2018-09-04T11:13:30.816Z,97367.69
2018-09-04T11:16:00.193Z,97363.33
2018-09-04T11:18:29.160Z,97368.28
2018-09-04T11:20:59.020Z,97360.30
2018-09-04T11:23:28.013Z,97354.09
2018-09-04T11:25:56.903Z,97359.52
2018-09-04T11:28:25.757Z,97355.58
2018-09-04T11:30:54.829Z,97356.02
2018-09-04T11:33:23.857Z,97351.33
2018-09-04T11:35:52.830Z,97348.64
2018-09-04T11:38:21.754Z,97345.85
2018-09-04T11:40:50.743Z,97348.64
2018-09-04T11:43:19.862Z,97350.50
2018-09-04T11:45:48.844Z,97349.38
2018-09-04T11:48:18.584Z,97348.03
2018-09-04T11:50:48.151Z,97347.78
2018-09-04T11:53:17.156Z,97355.95
2018-09-04T11:55:47.195Z,97355.72
2018-09-04T11:58:16.143Z,97348.03
2018-09-04T12:00:47.040Z,97357.72
2018-09-04T12:03:18.377Z,97350.41
2018-09-04T12:05:47.472Z,97355.21
2018-09-04T12:08:16.375Z,97350.14
2018-09-04T12:10:45.450Z,97357.55
2018-09-04T12:13:18.585Z,97360.10
2018-09-04T12:15:47.590Z,97355.35
2018-09-04T12:18:16.547Z,97354.77
2018-09-04T12:21:02.111Z,97356.51
2018-09-04T12:23:31.086Z,97365.28
2018-09-04T12:26:01.304Z,97361.33
2018-09-04T12:28:30.230Z,97358.95
2018-09-04T12:30:59.639Z,97357.13
2018-09-04T12:33:28.622Z,97354.64
2018-09-04T12:35:57.638Z,97351.27
2018-09-04T12:38:31.719Z,97353.15
2018-09-04T12:41:05.057Z,97349.08
2018-09-04T12:43:34.101Z,97349.67
2018-09-04T12:46:03.104Z,97348.41
2018-09-04T12:48:32.205Z,97337.86
2018-09-04T12:51:03.071Z,97335.69
2018-09-04T12:53:32.751Z,97340.41
2018-09-04T12:56:01.777Z,97336.13
2018-09-04T12:58:30.635Z,97336.68
2018-09-04T13:00:59.822Z,97334.33
2018-09-04T13:03:29.723Z,97326.59
2018-09-04T13:05:58.811Z,97321.30
2018-09-04T13:08:29.355Z,97323.97
2018-09-04T13:10:58.202Z,97323.56
2018-09-04T13:13:27.147Z,97318.03
2018-09-04T13:15:57.681Z,97321.40
2018-09-04T13:18:32.880Z,97327.72
2018-09-04T13:21:03.223Z,97331.17
2018-09-04T13:23:33.732Z,97339.22
2018-09-04T13:26:03.137Z,97332.98
2018-09-04T13:28:32.774Z,97328.26
2018-09-04T13:31:01.924Z,97321.98
2018-09-04T13:33:31.064Z,97323.72
2018-09-04T13:36:00.193Z,97320.90
2018-09-04T13:38:29.171Z,97317.53
2018-09-04T13:41:03.181Z,97319.25
2018-09-04T13:43:32.885Z,97314.09
2018-09-04T13:46:02.113Z,97313.38
2018-09-04T13:48:33.606Z,97321.86
2018-09-04T13:51:02.616Z,97318.75
2018-09-04T13:53:31.753Z,97322.54
2018-09-04T13:56:00.940Z,97322.67
2018-09-04T13:58:30.035Z,97321.04
2018-09-04T14:00:58.989Z,97330.44
2018-09-04T14:03:28.132Z,97327.38
2018-09-04T14:05:57.048Z,97333.81
2018-09-04T14:22:53.379Z,97348.41
2018-09-04T14:25:22.528Z,97345.28
2018-09-04T14:27:51.654Z,97350.88
2018-09-04T14:30:24.074Z,97346.97
2018-09-04T14:32:52.944Z,97349.75
2018-09-04T14:35:21.864Z,97351.88
2018-09-04T14:37:50.852Z,97351.44
2018-09-04T14:40:22.955Z,97348.63
2018-09-04T14:42:52.175Z,97343.97
2018-09-04T14:45:21.863Z,97347.21
2018-09-04T14:47:51.172Z,97335.53
2018-09-04T14:50:22.097Z,97344.61
2018-09-04T14:52:51.008Z,97355.48
2018-09-04T14:55:20.677Z,97351.14
2018-09-04T14:57:51.557Z,97349.64
2018-09-04T15:00:20.986Z,97347.09
2018-09-04T15:02:50.050Z,97352.61
2018-09-04T15:05:22.395Z,97353.52
2018-09-04T15:07:51.777Z,97356.53
2018-09-04T15:10:21.728Z,97356.28
2018-09-04T15:12:50.628Z,97358.56
2018-09-04T15:15:20.320Z,97358.63
2018-09-04T15:17:49.416Z,97348.66
2018-09-04T15:20:22.448Z,97359.55
2018-09-04T15:22:51.452Z,97352.50
2018-09-04T15:25:20.515Z,97355.21
2018-09-04T15:27:49.499Z,97357.45
2018-09-04T15:30:20.922Z,97359.81
2018-09-04T15:32:50.431Z,97359.06
2018-09-04T15:35:20.295Z,97354.22
2018-09-04T15:37:49.640Z,97349.47
2018-09-04T15:40:21.382Z,97343.38
2018-09-04T15:42:50.459Z,97345.91
2018-09-04T15:45:20.458Z,97352.12
2018-09-04T15:47:49.806Z,97361.27
2018-09-04T15:50:18.889Z,97359.77
2018-09-04T15:52:47.887Z,97363.97
2018-09-04T15:55:17.220Z,97363.64
2018-09-04T15:57:46.727Z,97362.73
2018-09-04T16:00:15.928Z,97355.91
2018-09-04T16:02:44.963Z,97357.62
2018-09-04T16:05:14.204Z,97356.87
2018-09-04T16:07:43.201Z,97358.87
2018-09-04T16:10:12.270Z,97357.83
2018-09-04T16:12:41.186Z,97359.38
2018-09-04T16:15:10.330Z,97355.42
2018-09-04T16:17:39.517Z,97361.05
2018-09-04T16:20:09.881Z,97357.16
2018-09-04T16:22:39.070Z,97357.05
2018-09-04T16:25:08.028Z,97352.27
2018-09-04T16:27:36.995Z,97359.69
2018-09-04T16:30:06.154Z,97365.24
2018-09-04T16:32:35.193Z,97363.52
2018-09-04T16:35:04.130Z,97369.57
2018-09-04T16:37:33.162Z,97369.26
2018-09-04T16:40:02.352Z,97364.36
2018-09-04T16:42:31.700Z,97358.53
2018-09-04T16:45:28.195Z,97366.30
2018-09-04T16:47:57.307Z,97356.28
2018-09-04T16:50:26.503Z,97359.02
2018-09-04T16:52:55.667Z,97354.68
2018-09-04T16:55:25.368Z,97358.88
2018-09-04T16:57:55.361Z,97346.28
2018-09-04T17:00:26.083Z,97348.14
2018-09-04T17:02:56.039Z,97353.23
2018-09-04T17:05:26.753Z,97349.06
2018-09-04T17:07:56.168Z,97347.63
2018-09-04T17:10:26.699Z,97356.87
2018-09-04T17:12:56.382Z,97352.23
2018-09-04T17:15:26.717Z,97358.36
2018-09-04T17:17:55.800Z,97350.55
2018-09-04T17:20:24.918Z,97356.06
2018-09-04T17:22:54.154Z,97358.72
2018-09-04T17:25:23.101Z,97363.72
2018-09-04T17:27:52.556Z,97365.86
2018-09-04T17:30:25.127Z,97371.58
2018-09-04T17:32:54.563Z,97369.48
2018-09-04T17:35:24.416Z,97370.89
2018-09-04T17:37:54.188Z,97376.38
2018-09-04T17:40:24.185Z,97375.94
2018-09-04T17:42:53.117Z,97389.28
2018-09-04T17:45:22.167Z,97390.89
2018-09-04T17:47:51.271Z,97389.70
2018-09-04T17:50:21.048Z,97390.20
2018-09-04T17:52:50.133Z,97393.22
2018-09-04T17:55:19.364Z,97405.06
2018-09-04T17:57:48.245Z,97401.06
2018-09-04T18:00:18.863Z,97405.09
2018-09-04T18:02:47.826Z,97411.77
2018-09-04T18:05:18.060Z,97409.98
2018-09-04T18:07:47.081Z,97412.70
2018-09-04T18:10:18.462Z,97413.97
2018-09-04T18:12:47.408Z,97415.39
2018-09-04T18:15:17.848Z,97418.51
2018-09-04T18:17:47.924Z,97411.80
2018-09-04T18:20:18.669Z,97416.28
2018-09-04T18:22:47.688Z,97415.55
2018-09-04T18:25:18.614Z,97416.15
2018-09-04T18:27:48.137Z,97422.39
2018-09-04T18:30:18.908Z,97424.85
2018-09-04T18:32:47.811Z,97426.45
2018-09-04T18:35:21.318Z,97426.31
2018-09-04T18:37:50.659Z,97426.94
2018-09-04T18:40:22.940Z,97425.13
2018-09-04T18:42:52.731Z,97422.84
2018-09-04T18:45:32.696Z,97423.57
2018-09-04T18:48:01.620Z,97424.01
2018-09-04T18:50:30.518Z,97431.10
2018-09-04T18:53:00.447Z,97425.91
2018-09-04T18:55:29.311Z,97427.00
2018-09-04T18:57:58.302Z,97434.73
2018-09-04T19:00:27.843Z,97432.34
2018-09-04T19:02:59.873Z,97433.81
2018-09-04T19:05:29.042Z,97429.53
2018-09-04T19:07:58.249Z,97430.66
2018-09-04T19:10:27.226Z,97434.17
2018-09-04T19:12:56.376Z,97434.04
2018-09-04T19:15:25.584Z,97430.27
2018-09-04T19:17:55.658Z,97431.77
2018-09-04T19:20:24.941Z,97435.94
2018-09-04T19:22:54.538Z,97438.94
2018-09-04T19:25:23.901Z,97431.22
2018-09-04T19:27:53.166Z,97431.53
2018-09-04T19:30:26.607Z,97443.89
2018-09-04T19:32:55.964Z,97448.89
2018-09-04T19:35:26.733Z,97455.45
2018-09-04T19:37:56.518Z,97458.23
2018-09-04T19:40:26.153Z,97453.53
2018-09-04T19:42:55.947Z,97459.69
2018-09-04T19:45:25.467Z,97461.42
2018-09-04T19:47:54.507Z,97462.08
2018-09-04T19:50:23.667Z,97473.38
2018-09-04T19:52:57.516Z,97473.20
2018-09-04T19:55:26.789Z,97467.69
2018-09-04T19:57:56.117Z,97477.36
2018-09-04T20:00:25.223Z,97478.89
2018-09-04T20:05:33.513Z,97481.27
2018-09-04T20:08:11.853Z,97482.62
2018-09-04T20:10:40.920Z,97478.48
2018-09-04T20:13:10.127Z,97489.47
2018-09-04T20:15:39.244Z,97489.92
2018-09-04T20:18:08.349Z,97485.36
2018-09-04T20:20:37.406Z,97492.87
2018-09-04T20:23:06.382Z,97503.48
2018-09-04T20:25:35.379Z,97502.22
2018-09-04T20:28:04.344Z,97501.67
2018-09-04T20:30:33.427Z,97506.67
2018-09-04T20:33:02.440Z,97505.10
2018-09-04T20:35:31.502Z,97505.34
2018-09-04T20:38:21.900Z,97511.53
2018-09-04T20:40:51.945Z,97520.02
2018-09-04T20:47:03.864Z,97520.23
2018-09-04T20:49:32.956Z,97521.12
2018-09-04T20:52:01.900Z,97516.52
2018-09-04T20:54:31.077Z,97514.62
2018-09-04T20:57:28.945Z,97510.47
2018-09-04T21:00:10.009Z,97508.81
2018-09-04T21:02:50.030Z,97510.75
2018-09-04T21:05:30.258Z,97506.67
2018-09-04T21:08:17.757Z,97505.14
2018-09-04T21:10:48.403Z,97508.53
2018-09-04T21:13:18.946Z,97514.64
2018-09-04T21:15:48.175Z,97515.65
2018-09-04T21:18:17.415Z,97523.77
2018-09-04T21:20:47.542Z,97519.77
2018-09-04T21:23:16.784Z,97526.39
2018-09-04T21:25:46.255Z,97531.86
2018-09-04T21:28:15.879Z,97526.49
2018-09-04T21:30:44.820Z,97528.20
2018-09-04T21:33:14.117Z,97531.08
2018-09-04T21:35:43.146Z,97522.85
2018-09-04T21:38:46.062Z,97518.34
2018-09-04T21:41:15.228Z,97517.86
2018-09-04T21:43:44.517Z,97524.94
2018-09-04T21:46:13.860Z,97518.97
2018-09-04T21:48:43.094Z,97517.04
2018-09-04T21:51:27.044Z,97517.52
2018-09-04T21:53:57.455Z,97519.06
2018-09-04T21:56:27.332Z,97519.41
2018-09-04T21:58:57.177Z,97523.42
2018-09-04T22:01:28.610Z,97529.24
2018-09-04T22:03:57.708Z,97516.30
2018-09-04T22:06:28.572Z,97514.41
2018-09-04T22:08:57.947Z,97519.28
2018-09-04T22:11:27.669Z,97519.86
2018-09-04T22:13:56.936Z,97526.61
2018-09-04T22:16:28.158Z,97533.40
2018-09-04T22:18:57.361Z,97532.83
2018-09-04T22:24:55.022Z,97536.42
2018-09-04T22:27:24.002Z,97536.12
2018-09-04T22:29:53.064Z,97527.62
2018-09-04T22:32:23.115Z,97529.55
2018-09-04T22:34:53.583Z,97539.94
2018-09-04T22:37:25.851Z,97554.93
2018-09-04T22:39:55.992Z,97545.99
2018-09-04T22:42:25.067Z,97550.27
2018-09-04T22:44:54.185Z,97544.30
2018-09-04T22:47:23.283Z,97546.65
2018-09-04T22:49:57.374Z,97546.68
2018-09-04T22:52:30.748Z,97545.38
2018-09-04T22:55:05.390Z,97546.47
2018-09-04T22:57:34.538Z,97555.98
2018-09-04T23:00:03.731Z,97551.17
2018-09-04T23:02:33.252Z,97552.23
2018-09-04T23:05:02.904Z,97551.67
2018-09-04T23:07:31.874Z,97545.16
2018-09-04T23:10:01.093Z,97544.24
2018-09-04T23:12:30.191Z,97542.06
2018-09-04T23:14:59.259Z,97537.70
2018-09-04T23:17:28.436Z,97537.66
2018-09-04T23:19:57.545Z,97543.17
2018-09-04T23:22:26.676Z,97536.09
2018-09-04T23:24:55.807Z,97536.63
2018-09-04T23:27:24.989Z,97542.14
2018-09-04T23:29:54.124Z,97544.13
2018-09-04T23:32:23.317Z,97544.86
2018-09-04T23:34:52.471Z,97550.64
2018-09-04T23:37:22.113Z,97552.88
2018-09-04T23:39:51.261Z,97551.28
2018-09-04T23:42:21.016Z,97547.48
2018-09-04T23:44:50.116Z,97550.99
2018-09-04T23:47:19.520Z,97548.00
2018-09-04T23:49:48.599Z,97548.84
2018-09-04T23:52:22.488Z,97549.91
2018-09-04T23:54:51.657Z,97556.97
2018-09-04T23:57:21.604Z,97554.80
2018-09-04T23:59:51.971Z,97552.34
